createdAt,value
2023-04-18T00:01:03.266Z,6.03
2023-04-18T00:06:05.941Z,5.85
2023-04-18T00:11:07.767Z,5.81
2023-04-18T00:16:09.544Z,5.75
2023-04-18T00:21:11.626Z,5.74
2023-04-18T00:26:13.540Z,5.67
2023-04-18T00:31:16.127Z,5.72
2023-04-18T00:36:17.864Z,5.76
2023-04-18T00:41:21.880Z,5.72
2023-04-18T00:46:23.751Z,5.67
2023-04-18T00:51:25.868Z,5.62
2023-04-18T00:56:29.425Z,5.59
2023-04-18T01:01:33.798Z,5.50
2023-04-18T01:06:36.985Z,5.45
2023-04-18T01:11:38.748Z,5.40
2023-04-18T01:16:40.500Z,5.45
2023-04-18T01:21:44.003Z,5.41
2023-04-18T01:26:48.252Z,5.36
2023-04-18T01:31:50.201Z,5.29
2023-04-18T01:36:52.036Z,5.20
2023-04-18T01:41:53.806Z,4.93
2023-04-18T01:46:55.759Z,4.62
2023-04-18T01:51:57.567Z,4.71
2023-04-18T01:56:59.356Z,4.77
2023-04-18T02:02:01.203Z,4.78
2023-04-18T02:07:03.117Z,4.74
2023-04-18T02:12:05.008Z,4.70
2023-04-18T02:17:06.833Z,4.70
2023-04-18T02:22:08.560Z,4.67
2023-04-18T02:27:11.198Z,4.66
2023-04-18T02:32:13.071Z,4.61
2023-04-18T02:37:18.029Z,4.58
2023-04-18T02:42:19.895Z,4.33
2023-04-18T02:47:21.833Z,4.23
2023-04-18T02:52:25.534Z,4.21
2023-04-18T02:57:27.346Z,4.25
2023-04-18T03:02:53.172Z,4.17
2023-04-18T03:08:13.648Z,4.10
2023-04-18T03:13:17.014Z,4.11
2023-04-18T03:18:19.056Z,4.08
2023-04-18T03:23:22.003Z,4.15
2023-04-18T03:28:23.950Z,4.15
2023-04-18T03:33:28.871Z,4.20
2023-04-18T03:38:41.510Z,4.13
2023-04-18T03:43:43.851Z,4.09
2023-04-18T03:48:46.605Z,4.10
2023-04-18T03:53:48.526Z,4.15
2023-04-18T03:58:52.090Z,4.16
2023-04-18T04:03:55.622Z,4.15
2023-04-18T04:08:59.316Z,4.11
2023-04-18T04:14:02.337Z,4.15
2023-04-18T04:19:11.569Z,4.21
2023-04-18T04:24:20.520Z,4.17
2023-04-18T04:29:23.908Z,4.04
2023-04-18T04:34:27.048Z,4.01
2023-04-18T04:39:29.499Z,4.06
2023-04-18T04:44:53.671Z,4.13
2023-04-18T04:49:56.857Z,4.20
2023-04-18T04:54:58.591Z,4.35
2023-04-18T05:00:01.264Z,4.49
2023-04-18T05:05:03.545Z,4.58
2023-04-18T05:10:05.693Z,4.81
2023-04-18T05:15:07.878Z,5.06
2023-04-18T05:20:11.605Z,5.18
2023-04-18T05:25:13.645Z,5.26
2023-04-18T05:30:17.166Z,5.40
2023-04-18T05:35:19.481Z,5.71
2023-04-18T05:40:22.273Z,6.00
2023-04-18T05:45:24.514Z,6.16
2023-04-18T05:50:27.522Z,6.24
2023-04-18T05:55:30.044Z,6.29
2023-04-18T06:00:32.225Z,6.31
2023-04-18T06:05:34.159Z,6.52
2023-04-18T06:10:37.749Z,6.76
2023-04-18T06:15:41.074Z,6.91
2023-04-18T06:20:44.047Z,7.16
2023-04-18T06:25:45.853Z,7.25
2023-04-18T06:30:47.606Z,7.66
2023-04-18T06:35:49.379Z,8.01
2023-04-18T06:40:51.207Z,8.33
2023-04-18T06:45:53.017Z,8.44
2023-04-18T06:50:54.910Z,8.63
2023-04-18T06:55:56.767Z,8.56
2023-04-18T07:00:58.724Z,8.59
2023-04-18T07:06:00.538Z,8.62
2023-04-18T07:11:02.459Z,8.71
2023-04-18T07:16:04.331Z,8.78
2023-04-18T07:21:09.453Z,8.69
2023-04-18T07:26:13.385Z,8.64
2023-04-18T07:31:16.735Z,8.63
2023-04-18T07:36:18.699Z,8.47
2023-04-18T07:41:20.521Z,8.47
2023-04-18T07:46:22.341Z,8.59
2023-04-18T07:51:26.653Z,8.75
2023-04-18T07:56:28.446Z,8.88
2023-04-18T08:01:30.267Z,8.94
2023-04-18T08:06:32.258Z,9.37
2023-04-18T08:11:34.527Z,9.68
2023-04-18T08:16:36.831Z,10.10
2023-04-18T08:21:39.378Z,10.37
2023-04-18T08:26:41.128Z,10.30
2023-04-18T08:31:42.944Z,10.21
2023-04-18T08:36:44.732Z,10.34
2023-04-18T08:41:53.960Z,10.05
2023-04-18T08:46:56.398Z,9.88
2023-04-18T08:52:01.148Z,10.48
2023-04-18T08:57:08.805Z,10.93
2023-04-18T09:02:11.890Z,11.23
2023-04-18T09:07:15.934Z,11.54
2023-04-18T09:12:23.421Z,11.77
2023-04-18T09:17:46.909Z,11.92
2023-04-18T09:22:52.535Z,12.07
2023-04-18T09:27:54.300Z,12.13
2023-04-18T09:33:00.501Z,12.28
2023-04-18T09:38:02.980Z,12.29
2023-04-18T09:43:20.598Z,11.62
2023-04-18T09:48:22.306Z,11.91
2023-04-18T09:53:24.688Z,11.79
2023-04-18T09:58:32.997Z,11.68
2023-04-18T10:03:44.441Z,11.76
2023-04-18T10:08:49.158Z,12.09
2023-04-18T10:13:55.961Z,12.10
2023-04-18T10:18:58.445Z,11.79
2023-04-18T10:24:00.249Z,11.94
2023-04-18T10:29:02.618Z,12.27
2023-04-18T10:34:07.484Z,12.10
2023-04-18T10:39:26.040Z,12.69
2023-04-18T10:44:28.013Z,13.10
2023-04-18T10:49:32.964Z,13.50
2023-04-18T10:54:43.837Z,13.55
2023-04-18T10:59:50.673Z,13.68
2023-04-18T11:05:06.849Z,13.67
2023-04-18T11:10:09.848Z,13.56
2023-04-18T11:15:22.682Z,13.83
2023-04-18T11:20:24.635Z,14.55
2023-04-18T11:25:32.103Z,14.63
2023-04-18T11:30:39.076Z,14.23
2023-04-18T11:35:44.519Z,13.62
2023-04-18T11:40:50.556Z,13.87
2023-04-18T11:46:00.003Z,14.50
2023-04-18T11:51:01.930Z,14.65
2023-04-18T11:56:05.019Z,14.47
2023-04-18T12:01:20.125Z,13.93
2023-04-18T12:06:24.305Z,13.73
2023-04-18T12:11:26.346Z,13.93
2023-04-18T12:16:28.404Z,14.04
2023-04-18T12:21:33.115Z,14.18
2023-04-18T12:26:34.913Z,14.10
2023-04-18T12:31:36.738Z,14.04
2023-04-18T12:36:38.632Z,14.30
2023-04-18T12:41:40.428Z,14.14
2023-04-18T12:46:42.321Z,14.10
2023-04-18T12:51:44.693Z,13.84
2023-04-18T12:56:46.488Z,13.65
2023-04-18T13:01:48.260Z,13.69
2023-04-18T13:06:50.058Z,13.71
2023-04-18T13:11:51.809Z,13.95
2023-04-18T13:16:53.604Z,13.93
2023-04-18T13:21:55.868Z,14.19
2023-04-18T13:26:57.665Z,14.26
2023-04-18T13:31:59.473Z,14.38
2023-04-18T13:37:01.541Z,14.58
2023-04-18T13:42:04.406Z,14.76
2023-04-18T13:47:07.713Z,14.91
2023-04-18T13:52:09.624Z,14.69
2023-04-18T13:57:11.797Z,14.35
2023-04-18T14:02:13.748Z,14.38
2023-04-18T14:07:15.653Z,14.48
2023-04-18T14:12:17.396Z,15.12
2023-04-18T14:17:19.187Z,15.40
2023-04-18T14:22:21.179Z,15.12
2023-04-18T14:27:23.109Z,15.00
2023-04-18T14:32:24.892Z,15.23
2023-04-18T14:37:26.696Z,15.33
2023-04-18T14:42:28.436Z,15.70
2023-04-18T14:47:31.950Z,15.30
2023-04-18T14:52:33.777Z,15.13
2023-04-18T14:57:37.137Z,15.30
2023-04-18T15:02:39.737Z,15.28
2023-04-18T15:07:43.527Z,14.87
2023-04-18T15:12:46.906Z,15.20
2023-04-18T15:17:48.670Z,14.93
2023-04-18T15:22:50.688Z,14.69
2023-04-18T15:27:52.948Z,14.88
2023-04-18T15:32:54.826Z,15.16
2023-04-18T15:37:57.711Z,14.96
2023-04-18T15:42:59.718Z,15.43
2023-04-18T15:48:02.195Z,15.33
2023-04-18T15:53:04.035Z,15.32
2023-04-18T15:58:06.876Z,15.08
2023-04-18T16:03:10.465Z,15.37
2023-04-18T16:08:12.320Z,15.03
2023-04-18T16:13:14.171Z,14.61
2023-04-18T16:18:15.908Z,14.38
2023-04-18T16:23:17.805Z,14.30
2023-04-18T16:28:19.566Z,13.85
2023-04-18T16:33:24.771Z,13.75
2023-04-18T16:38:27.469Z,13.51
2023-04-18T16:43:31.086Z,13.13
2023-04-18T16:48:32.872Z,13.12
2023-04-18T16:53:34.714Z,13.02
2023-04-18T16:58:36.475Z,13.05
2023-04-18T17:03:38.591Z,13.03
2023-04-18T17:08:40.631Z,12.88
2023-04-18T17:13:42.554Z,12.69
2023-04-18T17:18:44.316Z,12.76
2023-04-18T17:23:46.099Z,12.86
2023-04-18T17:28:47.819Z,12.67
2023-04-18T17:33:51.211Z,12.61
2023-04-18T17:38:53.163Z,12.55
2023-04-18T17:43:54.941Z,12.52
2023-04-18T17:48:57.066Z,12.36
2023-04-18T17:54:01.478Z,12.49
2023-04-18T17:59:03.339Z,12.52
2023-04-18T18:04:06.260Z,12.47
2023-04-18T18:09:08.301Z,12.22
2023-04-18T18:14:10.607Z,12.33
2023-04-18T18:19:14.533Z,12.17
2023-04-18T18:24:18.700Z,12.17
2023-04-18T18:29:20.531Z,12.04
2023-04-18T18:34:22.841Z,12.06
2023-04-18T18:39:24.594Z,12.10
2023-04-18T18:44:26.561Z,12.08
2023-04-18T18:49:28.522Z,12.03
2023-04-18T18:54:31.581Z,11.90
2023-04-18T18:59:33.307Z,11.62
2023-04-18T19:04:35.147Z,11.66
2023-04-18T19:09:37.050Z,11.89
2023-04-18T19:14:39.790Z,11.84
2023-04-18T19:19:43.577Z,11.95
2023-04-18T19:24:45.444Z,12.08
2023-04-18T19:29:47.175Z,12.04
2023-04-18T19:34:48.960Z,11.94
2023-04-18T19:39:50.752Z,11.90
2023-04-18T19:44:52.509Z,11.74
2023-04-18T19:49:54.276Z,11.65
2023-04-18T19:54:56.182Z,11.49
2023-04-18T19:59:57.910Z,11.49
2023-04-18T20:04:59.885Z,11.33
2023-04-18T20:10:01.947Z,11.24
2023-04-18T20:15:03.935Z,11.34
2023-04-18T20:20:08.901Z,11.37
2023-04-18T20:25:10.832Z,11.32
2023-04-18T20:30:12.866Z,11.41
2023-04-18T20:35:14.653Z,11.42
2023-04-18T20:40:16.633Z,11.32
2023-04-18T20:45:18.441Z,11.40
2023-04-18T20:50:20.655Z,11.40
2023-04-18T20:55:22.380Z,11.38
2023-04-18T21:00:24.536Z,11.19
2023-04-18T21:05:26.286Z,11.16
2023-04-18T21:10:28.068Z,11.20
2023-04-18T21:15:29.903Z,11.33
2023-04-18T21:20:31.772Z,11.20
2023-04-18T21:25:33.639Z,11.13
2023-04-18T21:30:35.372Z,11.05
2023-04-18T21:35:37.092Z,11.04
2023-04-18T21:40:38.834Z,11.12
2023-04-18T21:45:40.737Z,11.24
2023-04-18T21:50:43.178Z,11.13
2023-04-18T21:55:44.978Z,11.05
2023-04-18T22:00:46.756Z,11.06
2023-04-18T22:05:48.497Z,11.05
2023-04-18T22:10:50.592Z,11.00
2023-04-18T22:15:52.371Z,10.87
2023-04-18T22:20:54.871Z,10.85
2023-04-18T22:25:56.713Z,10.81
2023-04-18T22:30:58.675Z,10.99
2023-04-18T22:36:00.864Z,10.95
2023-04-18T22:41:02.574Z,10.89
2023-04-18T22:46:04.354Z,10.75
2023-04-18T22:51:06.253Z,10.95
2023-04-18T22:56:08.136Z,10.99
2023-04-18T23:01:09.897Z,11.00
2023-04-18T23:06:11.702Z,10.99
2023-04-18T23:11:13.652Z,10.85
2023-04-18T23:16:15.481Z,10.91
2023-04-18T23:21:17.579Z,10.90
2023-04-18T23:26:19.326Z,10.88
2023-04-18T23:31:21.870Z,10.90
2023-04-18T23:36:23.681Z,11.01
2023-04-18T23:41:25.425Z,10.96
2023-04-18T23:46:27.697Z,10.84
2023-04-18T23:51:29.477Z,10.66
2023-04-18T23:56:31.191Z,10.70
